sensor_id;sensor_type;location;lat;lon;timestamp;P1;durP1;ratioP1;P2;durP2;ratioP2
11743;SDS011;5929;51.906;7.674;2022-07-22T00:01:00;13.82;;;9.35;;
11743;SDS011;5929;51.906;7.674;2022-07-22T00:03:27;17.05;;;9.65;;
11743;SDS011;5929;51.906;7.674;2022-07-22T00:05:54;14.32;;;9.40;;
11743;SDS011;5929;51.906;7.674;2022-07-22T00:08:21;13.70;;;9.43;;
11743;SDS011;5929;51.906;7.674;2022-07-22T00:10:48;13.93;;;9.18;;
11743;SDS011;5929;51.906;7.674;2022-07-22T00:13:16;13.75;;;9.13;;
11743;SDS011;5929;51.906;7.674;2022-07-22T00:15:43;12.05;;;9.38;;
11743;SDS011;5929;51.906;7.674;2022-07-22T00:18:12;15.55;;;9.57;;
11743;SDS011;5929;51.906;7.674;2022-07-22T00:20:39;13.13;;;9.20;;
11743;SDS011;5929;51.906;7.674;2022-07-22T00:23:07;15.35;;;10.25;;
11743;SDS011;5929;51.906;7.674;2022-07-22T00:25:34;14.32;;;9.63;;
11743;SDS011;5929;51.906;7.674;2022-07-22T00:28:01;17.85;;;10.57;;
11743;SDS011;5929;51.906;7.674;2022-07-22T00:30:29;14.95;;;10.20;;
11743;SDS011;5929;51.906;7.674;2022-07-22T00:32:56;15.13;;;10.52;;
11743;SDS011;5929;51.906;7.674;2022-07-22T00:35:22;14.95;;;9.82;;
11743;SDS011;5929;51.906;7.674;2022-07-22T00:37:49;15.60;;;10.40;;
11743;SDS011;5929;51.906;7.674;2022-07-22T00:40:16;18.35;;;10.95;;
11743;SDS011;5929;51.906;7.674;2022-07-22T00:42:43;19.58;;;12.10;;
11743;SDS011;5929;51.906;7.674;2022-07-22T00:45:10;21.35;;;12.40;;
11743;SDS011;5929;51.906;7.674;2022-07-22T00:47:38;19.35;;;13.05;;
11743;SDS011;5929;51.906;7.674;2022-07-22T00:50:05;22.08;;;13.43;;
11743;SDS011;5929;51.906;7.674;2022-07-22T00:52:33;23.50;;;12.88;;
11743;SDS011;5929;51.906;7.674;2022-07-22T00:55:00;20.25;;;11.38;;
11743;SDS011;5929;51.906;7.674;2022-07-22T00:57:27;19.15;;;11.50;;
11743;SDS011;5929;51.906;7.674;2022-07-22T00:59:54;19.38;;;11.05;;
11743;SDS011;5929;51.906;7.674;2022-07-22T01:02:21;16.50;;;10.50;;
11743;SDS011;5929;51.906;7.674;2022-07-22T01:04:50;17.90;;;11.00;;
11743;SDS011;5929;51.906;7.674;2022-07-22T01:07:16;17.33;;;10.68;;
11743;SDS011;5929;51.906;7.674;2022-07-22T01:09:44;16.50;;;10.10;;
11743;SDS011;5929;51.906;7.674;2022-07-22T01:12:11;17.98;;;10.18;;
11743;SDS011;5929;51.906;7.674;2022-07-22T01:14:38;20.77;;;10.13;;
11743;SDS011;5929;51.906;7.674;2022-07-22T01:17:05;17.38;;;9.93;;
11743;SDS011;5929;51.906;7.674;2022-07-22T01:19:32;19.15;;;10.85;;
11743;SDS011;5929;51.906;7.674;2022-07-22T01:22:03;21.25;;;11.02;;
11743;SDS011;5929;51.906;7.674;2022-07-22T01:24:30;16.92;;;11.23;;
11743;SDS011;5929;51.906;7.674;2022-07-22T01:26:57;17.95;;;10.15;;
11743;SDS011;5929;51.906;7.674;2022-07-22T01:29:24;19.23;;;11.05;;
11743;SDS011;5929;51.906;7.674;2022-07-22T01:31:51;18.38;;;10.80;;
11743;SDS011;5929;51.906;7.674;2022-07-22T01:34:18;22.10;;;11.60;;
11743;SDS011;5929;51.906;7.674;2022-07-22T01:36:45;22.30;;;10.70;;
11743;SDS011;5929;51.906;7.674;2022-07-22T01:39:14;22.20;;;10.27;;
11743;SDS011;5929;51.906;7.674;2022-07-22T01:41:41;15.70;;;9.57;;
11743;SDS011;5929;51.906;7.674;2022-07-22T01:44:08;18.13;;;10.73;;
11743;SDS011;5929;51.906;7.674;2022-07-22T01:46:35;18.50;;;9.93;;
11743;SDS011;5929;51.906;7.674;2022-07-22T01:49:02;19.95;;;9.77;;
11743;SDS011;5929;51.906;7.674;2022-07-22T01:51:29;19.50;;;9.88;;
11743;SDS011;5929;51.906;7.674;2022-07-22T01:53:56;20.33;;;10.00;;
11743;SDS011;5929;51.906;7.674;2022-07-22T01:56:24;15.77;;;9.45;;
11743;SDS011;5929;51.906;7.674;2022-07-22T01:58:53;16.30;;;9.35;;
11743;SDS011;5929;51.906;7.674;2022-07-22T02:01:20;17.63;;;10.25;;
11743;SDS011;5929;51.906;7.674;2022-07-22T02:03:49;21.55;;;9.13;;
11743;SDS011;5929;51.906;7.674;2022-07-22T02:06:16;13.80;;;8.48;;
11743;SDS011;5929;51.906;7.674;2022-07-22T02:08:43;16.20;;;8.85;;
11743;SDS011;5929;51.906;7.674;2022-07-22T02:11:10;16.58;;;8.85;;
11743;SDS011;5929;51.906;7.674;2022-07-22T02:13:38;19.27;;;9.70;;
11743;SDS011;5929;51.906;7.674;2022-07-22T02:16:05;19.00;;;9.45;;
11743;SDS011;5929;51.906;7.674;2022-07-22T02:18:32;19.33;;;9.80;;
11743;SDS011;5929;51.906;7.674;2022-07-22T02:21:01;19.08;;;9.13;;
11743;SDS011;5929;51.906;7.674;2022-07-22T02:23:28;22.27;;;9.45;;
11743;SDS011;5929;51.906;7.674;2022-07-22T02:25:55;19.75;;;9.10;;
11743;SDS011;5929;51.906;7.674;2022-07-22T02:28:22;16.20;;;9.18;;
11743;SDS011;5929;51.906;7.674;2022-07-22T02:30:51;17.20;;;9.48;;
11743;SDS011;5929;51.906;7.674;2022-07-22T02:33:18;18.13;;;8.73;;
11743;SDS011;5929;51.906;7.674;2022-07-22T02:35:45;16.67;;;9.27;;
11743;SDS011;5929;51.906;7.674;2022-07-22T02:38:12;19.75;;;9.98;;
11743;SDS011;5929;51.906;7.674;2022-07-22T02:40:39;21.50;;;10.10;;
11743;SDS011;5929;51.906;7.674;2022-07-22T02:43:06;22.70;;;10.00;;
11743;SDS011;5929;51.906;7.674;2022-07-22T02:45:33;22.48;;;9.65;;
11743;SDS011;5929;51.906;7.674;2022-07-22T02:48:01;23.25;;;10.98;;
11743;SDS011;5929;51.906;7.674;2022-07-22T02:50:28;23.08;;;10.13;;
11743;SDS011;5929;51.906;7.674;2022-07-22T02:52:55;22.42;;;10.10;;
11743;SDS011;5929;51.906;7.674;2022-07-22T02:55:22;19.00;;;9.82;;
11743;SDS011;5929;51.906;7.674;2022-07-22T02:57:49;25.30;;;9.77;;
11743;SDS011;5929;51.906;7.674;2022-07-22T03:00:16;18.90;;;10.65;;
11743;SDS011;5929;51.906;7.674;2022-07-22T03:02:43;17.15;;;9.45;;
11743;SDS011;5929;51.906;7.674;2022-07-22T03:05:11;19.10;;;9.85;;
11743;SDS011;5929;51.906;7.674;2022-07-22T03:07:38;20.92;;;10.60;;
11743;SDS011;5929;51.906;7.674;2022-07-22T03:10:06;20.65;;;10.02;;
11743;SDS011;5929;51.906;7.674;2022-07-22T03:12:33;18.15;;;9.73;;
11743;SDS011;5929;51.906;7.674;2022-07-22T03:15:00;24.45;;;10.48;;
11743;SDS011;5929;51.906;7.674;2022-07-22T03:17:27;21.38;;;10.60;;
11743;SDS011;5929;51.906;7.674;2022-07-22T03:19:54;21.52;;;10.25;;
11743;SDS011;5929;51.906;7.674;2022-07-22T03:22:22;19.13;;;9.93;;
11743;SDS011;5929;51.906;7.674;2022-07-22T03:24:49;17.92;;;9.45;;
11743;SDS011;5929;51.906;7.674;2022-07-22T03:27:16;18.30;;;9.15;;
11743;SDS011;5929;51.906;7.674;2022-07-22T03:29:42;15.90;;;9.10;;
11743;SDS011;5929;51.906;7.674;2022-07-22T03:32:09;19.80;;;9.25;;
11743;SDS011;5929;51.906;7.674;2022-07-22T03:34:36;17.42;;;9.75;;
11743;SDS011;5929;51.906;7.674;2022-07-22T03:37:03;20.77;;;9.77;;
11743;SDS011;5929;51.906;7.674;2022-07-22T03:39:31;20.50;;;9.82;;
11743;SDS011;5929;51.906;7.674;2022-07-22T03:41:58;26.27;;;9.70;;
11743;SDS011;5929;51.906;7.674;2022-07-22T03:44:25;22.25;;;8.85;;
11743;SDS011;5929;51.906;7.674;2022-07-22T03:46:52;22.42;;;9.57;;
11743;SDS011;5929;51.906;7.674;2022-07-22T03:49:19;18.55;;;9.15;;
11743;SDS011;5929;51.906;7.674;2022-07-22T03:51:46;18.95;;;8.90;;
11743;SDS011;5929;51.906;7.674;2022-07-22T03:54:13;16.90;;;8.75;;
11743;SDS011;5929;51.906;7.674;2022-07-22T03:56:41;14.45;;;7.85;;
11743;SDS011;5929;51.906;7.674;2022-07-22T03:59:09;14.10;;;7.13;;
11743;SDS011;5929;51.906;7.674;2022-07-22T04:01:36;20.70;;;7.25;;
11743;SDS011;5929;51.906;7.674;2022-07-22T04:04:03;18.13;;;7.13;;
11743;SDS011;5929;51.906;7.674;2022-07-22T04:06:32;11.18;;;6.47;;
11743;SDS011;5929;51.906;7.674;2022-07-22T04:08:59;10.70;;;6.38;;
11743;SDS011;5929;51.906;7.674;2022-07-22T04:11:26;15.30;;;6.05;;
11743;SDS011;5929;51.906;7.674;2022-07-22T04:13:54;12.82;;;5.70;;
11743;SDS011;5929;51.906;7.674;2022-07-22T04:16:21;17.17;;;5.85;;
11743;SDS011;5929;51.906;7.674;2022-07-22T04:18:48;14.32;;;5.88;;
11743;SDS011;5929;51.906;7.674;2022-07-22T04:21:15;12.00;;;5.47;;
11743;SDS011;5929;51.906;7.674;2022-07-22T04:23:41;14.38;;;5.70;;
11743;SDS011;5929;51.906;7.674;2022-07-22T04:26:08;13.40;;;6.22;;
11743;SDS011;5929;51.906;7.674;2022-07-22T04:28:35;16.50;;;5.65;;
11743;SDS011;5929;51.906;7.674;2022-07-22T04:31:04;18.00;;;5.95;;
11743;SDS011;5929;51.906;7.674;2022-07-22T04:33:33;14.40;;;6.10;;
11743;SDS011;5929;51.906;7.674;2022-07-22T04:36:00;16.17;;;5.32;;
11743;SDS011;5929;51.906;7.674;2022-07-22T04:38:27;12.20;;;5.60;;
11743;SDS011;5929;51.906;7.674;2022-07-22T04:40:56;13.73;;;5.13;;
11743;SDS011;5929;51.906;7.674;2022-07-22T04:43:23;15.52;;;5.18;;
11743;SDS011;5929;51.906;7.674;2022-07-22T04:45:50;11.63;;;5.20;;
11743;SDS011;5929;51.906;7.674;2022-07-22T04:48:19;13.20;;;5.53;;
11743;SDS011;5929;51.906;7.674;2022-07-22T04:50:46;11.48;;;5.30;;
11743;SDS011;5929;51.906;7.674;2022-07-22T04:53:13;21.20;;;5.80;;
11743;SDS011;5929;51.906;7.674;2022-07-22T04:55:40;18.55;;;5.93;;
11743;SDS011;5929;51.906;7.674;2022-07-22T04:58:07;15.35;;;4.57;;
11743;SDS011;5929;51.906;7.674;2022-07-22T05:00:34;10.65;;;4.90;;
11743;SDS011;5929;51.906;7.674;2022-07-22T05:03:01;13.15;;;4.95;;
11743;SDS011;5929;51.906;7.674;2022-07-22T05:05:29;9.45;;;4.70;;
11743;SDS011;5929;51.906;7.674;2022-07-22T05:07:56;10.25;;;4.85;;
11743;SDS011;5929;51.906;7.674;2022-07-22T05:10:23;14.23;;;4.28;;
11743;SDS011;5929;51.906;7.674;2022-07-22T05:12:49;18.10;;;5.32;;
11743;SDS011;5929;51.906;7.674;2022-07-22T05:15:17;14.02;;;5.25;;
11743;SDS011;5929;51.906;7.674;2022-07-22T05:17:44;16.95;;;5.20;;
11743;SDS011;5929;51.906;7.674;2022-07-22T05:20:11;16.40;;;4.70;;
11743;SDS011;5929;51.906;7.674;2022-07-22T05:22:39;13.27;;;4.72;;
11743;SDS011;5929;51.906;7.674;2022-07-22T05:25:06;13.77;;;4.78;;
11743;SDS011;5929;51.906;7.674;2022-07-22T05:27:33;16.13;;;5.60;;
11743;SDS011;5929;51.906;7.674;2022-07-22T05:30:00;11.07;;;4.57;;
11743;SDS011;5929;51.906;7.674;2022-07-22T05:32:27;12.48;;;4.75;;
11743;SDS011;5929;51.906;7.674;2022-07-22T05:34:54;13.95;;;4.82;;
11743;SDS011;5929;51.906;7.674;2022-07-22T05:37:21;15.05;;;3.90;;
11743;SDS011;5929;51.906;7.674;2022-07-22T05:39:49;17.10;;;4.30;;
11743;SDS011;5929;51.906;7.674;2022-07-22T05:42:16;10.20;;;4.35;;
11743;SDS011;5929;51.906;7.674;2022-07-22T05:44:43;13.05;;;4.10;;
11743;SDS011;5929;51.906;7.674;2022-07-22T05:47:12;11.40;;;3.83;;
11743;SDS011;5929;51.906;7.674;2022-07-22T05:49:39;10.48;;;4.28;;
11743;SDS011;5929;51.906;7.674;2022-07-22T05:52:05;11.70;;;3.70;;
11743;SDS011;5929;51.906;7.674;2022-07-22T05:54:32;10.35;;;3.70;;
11743;SDS011;5929;51.906;7.674;2022-07-22T05:57:01;12.80;;;4.32;;
11743;SDS011;5929;51.906;7.674;2022-07-22T05:59:27;10.43;;;4.18;;
11743;SDS011;5929;51.906;7.674;2022-07-22T06:01:54;10.68;;;3.67;;
11743;SDS011;5929;51.906;7.674;2022-07-22T06:04:21;13.20;;;3.85;;
11743;SDS011;5929;51.906;7.674;2022-07-22T06:06:48;14.32;;;4.15;;
11743;SDS011;5929;51.906;7.674;2022-07-22T06:09:15;10.43;;;3.47;;
11743;SDS011;5929;51.906;7.674;2022-07-22T06:11:42;11.63;;;4.10;;
11743;SDS011;5929;51.906;7.674;2022-07-22T06:14:10;10.63;;;3.88;;
11743;SDS011;5929;51.906;7.674;2022-07-22T06:16:37;11.57;;;3.25;;
11743;SDS011;5929;51.906;7.674;2022-07-22T06:19:04;8.73;;;3.33;;
11743;SDS011;5929;51.906;7.674;2022-07-22T06:21:33;9.00;;;3.60;;
11743;SDS011;5929;51.906;7.674;2022-07-22T06:24:01;8.45;;;2.85;;
11743;SDS011;5929;51.906;7.674;2022-07-22T06:26:28;9.07;;;3.38;;
11743;SDS011;5929;51.906;7.674;2022-07-22T06:28:55;11.75;;;3.38;;
11743;SDS011;5929;51.906;7.674;2022-07-22T06:31:23;11.27;;;2.80;;
11743;SDS011;5929;51.906;7.674;2022-07-22T06:33:50;8.35;;;2.85;;
11743;SDS011;5929;51.906;7.674;2022-07-22T06:36:19;10.43;;;2.47;;
11743;SDS011;5929;51.906;7.674;2022-07-22T06:38:46;9.32;;;2.38;;
11743;SDS011;5929;51.906;7.674;2022-07-22T06:41:13;9.43;;;2.45;;
11743;SDS011;5929;51.906;7.674;2022-07-22T06:43:43;7.15;;;2.38;;
11743;SDS011;5929;51.906;7.674;2022-07-22T06:46:12;8.73;;;2.85;;
11743;SDS011;5929;51.906;7.674;2022-07-22T06:48:41;11.25;;;2.08;;
11743;SDS011;5929;51.906;7.674;2022-07-22T06:51:07;10.23;;;2.40;;
11743;SDS011;5929;51.906;7.674;2022-07-22T06:53:34;7.55;;;2.28;;
11743;SDS011;5929;51.906;7.674;2022-07-22T06:56:01;9.25;;;2.40;;
11743;SDS011;5929;51.906;7.674;2022-07-22T06:58:28;6.20;;;2.00;;
11743;SDS011;5929;51.906;7.674;2022-07-22T07:00:55;5.93;;;2.25;;
11743;SDS011;5929;51.906;7.674;2022-07-22T07:03:22;9.25;;;2.25;;
11743;SDS011;5929;51.906;7.674;2022-07-22T07:05:52;8.85;;;2.15;;
11743;SDS011;5929;51.906;7.674;2022-07-22T07:08:18;8.98;;;2.00;;
11743;SDS011;5929;51.906;7.674;2022-07-22T07:10:45;5.20;;;2.00;;
11743;SDS011;5929;51.906;7.674;2022-07-22T07:13:13;8.27;;;1.85;;
11743;SDS011;5929;51.906;7.674;2022-07-22T07:15:40;6.85;;;1.80;;
11743;SDS011;5929;51.906;7.674;2022-07-22T07:18:07;8.77;;;1.67;;
11743;SDS011;5929;51.906;7.674;2022-07-22T07:20:33;7.00;;;1.70;;
11743;SDS011;5929;51.906;7.674;2022-07-22T07:23:02;5.50;;;1.42;;
11743;SDS011;5929;51.906;7.674;2022-07-22T07:25:29;5.88;;;1.60;;
11743;SDS011;5929;51.906;7.674;2022-07-22T07:27:56;6.30;;;1.58;;
11743;SDS011;5929;51.906;7.674;2022-07-22T07:30:23;7.07;;;1.73;;
11743;SDS011;5929;51.906;7.674;2022-07-22T07:32:50;5.25;;;1.70;;
11743;SDS011;5929;51.906;7.674;2022-07-22T07:35:16;4.10;;;1.45;;
11743;SDS011;5929;51.906;7.674;2022-07-22T07:37:43;5.30;;;1.10;;
11743;SDS011;5929;51.906;7.674;2022-07-22T07:40:12;6.72;;;1.60;;
11743;SDS011;5929;51.906;7.674;2022-07-22T07:42:39;7.32;;;1.77;;
11743;SDS011;5929;51.906;7.674;2022-07-22T07:45:07;8.90;;;1.50;;
11743;SDS011;5929;51.906;7.674;2022-07-22T07:47:34;5.78;;;1.52;;
11743;SDS011;5929;51.906;7.674;2022-07-22T07:50:01;10.15;;;1.98;;
11743;SDS011;5929;51.906;7.674;2022-07-22T07:52:28;6.75;;;1.45;;
11743;SDS011;5929;51.906;7.674;2022-07-22T07:54:55;7.28;;;1.83;;
11743;SDS011;5929;51.906;7.674;2022-07-22T07:57:24;5.13;;;1.40;;
11743;SDS011;5929;51.906;7.674;2022-07-22T07:59:51;4.25;;;1.35;;
11743;SDS011;5929;51.906;7.674;2022-07-22T08:02:18;4.72;;;1.40;;
11743;SDS011;5929;51.906;7.674;2022-07-22T08:04:45;8.07;;;1.77;;
11743;SDS011;5929;51.906;7.674;2022-07-22T08:07:11;3.58;;;1.20;;
11743;SDS011;5929;51.906;7.674;2022-07-22T08:09:38;7.85;;;1.95;;
11743;SDS011;5929;51.906;7.674;2022-07-22T08:12:05;7.55;;;1.65;;
11743;SDS011;5929;51.906;7.674;2022-07-22T08:14:34;6.25;;;1.50;;
11743;SDS011;5929;51.906;7.674;2022-07-22T08:17:03;6.78;;;1.77;;
11743;SDS011;5929;51.906;7.674;2022-07-22T08:19:30;8.20;;;2.20;;
11743;SDS011;5929;51.906;7.674;2022-07-22T08:21:57;8.23;;;1.80;;
11743;SDS011;5929;51.906;7.674;2022-07-22T08:24:24;7.70;;;2.00;;
11743;SDS011;5929;51.906;7.674;2022-07-22T08:26:51;6.25;;;1.80;;
11743;SDS011;5929;51.906;7.674;2022-07-22T08:29:18;6.50;;;1.45;;
11743;SDS011;5929;51.906;7.674;2022-07-22T08:31:46;10.15;;;2.20;;
11743;SDS011;5929;51.906;7.674;2022-07-22T08:34:13;6.38;;;1.70;;
11743;SDS011;5929;51.906;7.674;2022-07-22T08:36:40;8.30;;;2.10;;
11743;SDS011;5929;51.906;7.674;2022-07-22T08:39:07;9.27;;;1.90;;
11743;SDS011;5929;51.906;7.674;2022-07-22T08:41:34;5.25;;;1.90;;
11743;SDS011;5929;51.906;7.674;2022-07-22T08:44:04;6.68;;;2.05;;
11743;SDS011;5929;51.906;7.674;2022-07-22T08:46:32;7.13;;;2.10;;
11743;SDS011;5929;51.906;7.674;2022-07-22T08:49:00;4.68;;;1.42;;
11743;SDS011;5929;51.906;7.674;2022-07-22T08:51:28;5.72;;;1.52;;
11743;SDS011;5929;51.906;7.674;2022-07-22T08:53:55;9.77;;;2.28;;
11743;SDS011;5929;51.906;7.674;2022-07-22T08:56:22;6.53;;;1.88;;
11743;SDS011;5929;51.906;7.674;2022-07-22T08:58:48;10.35;;;2.50;;
11743;SDS011;5929;51.906;7.674;2022-07-22T09:01:16;6.80;;;1.98;;
11743;SDS011;5929;51.906;7.674;2022-07-22T09:03:44;6.15;;;2.13;;
11743;SDS011;5929;51.906;7.674;2022-07-22T09:06:14;6.95;;;2.10;;
11743;SDS011;5929;51.906;7.674;2022-07-22T09:08:51;10.70;;;2.08;;
11743;SDS011;5929;51.906;7.674;2022-07-22T09:11:20;6.43;;;2.10;;
11743;SDS011;5929;51.906;7.674;2022-07-22T09:13:48;8.52;;;1.98;;
11743;SDS011;5929;51.906;7.674;2022-07-22T09:16:16;8.35;;;1.92;;
11743;SDS011;5929;51.906;7.674;2022-07-22T09:19:03;5.22;;;1.92;;
11743;SDS011;5929;51.906;7.674;2022-07-22T09:21:31;7.60;;;2.47;;
11743;SDS011;5929;51.906;7.674;2022-07-22T09:24:00;7.22;;;2.20;;
11743;SDS011;5929;51.906;7.674;2022-07-22T09:26:30;9.30;;;2.20;;
11743;SDS011;5929;51.906;7.674;2022-07-22T09:28:58;12.65;;;2.60;;
11743;SDS011;5929;51.906;7.674;2022-07-22T09:31:25;8.05;;;2.25;;
11743;SDS011;5929;51.906;7.674;2022-07-22T09:33:55;6.45;;;2.08;;
11743;SDS011;5929;51.906;7.674;2022-07-22T09:36:22;7.43;;;2.30;;
11743;SDS011;5929;51.906;7.674;2022-07-22T09:38:51;6.68;;;2.45;;
11743;SDS011;5929;51.906;7.674;2022-07-22T09:41:18;5.35;;;2.03;;
11743;SDS011;5929;51.906;7.674;2022-07-22T09:43:46;6.80;;;2.28;;
11743;SDS011;5929;51.906;7.674;2022-07-22T09:46:15;8.20;;;2.30;;
11743;SDS011;5929;51.906;7.674;2022-07-22T09:48:42;7.10;;;2.78;;
11743;SDS011;5929;51.906;7.674;2022-07-22T09:51:09;6.22;;;2.13;;
11743;SDS011;5929;51.906;7.674;2022-07-22T09:53:36;5.82;;;2.10;;
11743;SDS011;5929;51.906;7.674;2022-07-22T09:56:05;5.63;;;1.88;;
11743;SDS011;5929;51.906;7.674;2022-07-22T09:58:33;6.38;;;2.55;;
11743;SDS011;5929;51.906;7.674;2022-07-22T10:01:03;5.10;;;2.10;;
11743;SDS011;5929;51.906;7.674;2022-07-22T10:03:32;5.72;;;1.67;;
11743;SDS011;5929;51.906;7.674;2022-07-22T10:06:02;6.03;;;1.73;;
11743;SDS011;5929;51.906;7.674;2022-07-22T10:08:31;6.50;;;2.20;;
11743;SDS011;5929;51.906;7.674;2022-07-22T10:10:59;8.43;;;2.63;;
11743;SDS011;5929;51.906;7.674;2022-07-22T10:13:28;9.38;;;2.40;;
11743;SDS011;5929;51.906;7.674;2022-07-22T10:15:55;9.23;;;2.10;;
11743;SDS011;5929;51.906;7.674;2022-07-22T10:18:23;6.07;;;2.10;;
11743;SDS011;5929;51.906;7.674;2022-07-22T10:20:59;7.55;;;1.90;;
11743;SDS011;5929;51.906;7.674;2022-07-22T10:23:28;6.38;;;1.98;;
11743;SDS011;5929;51.906;7.674;2022-07-22T10:25:57;6.20;;;2.10;;
11743;SDS011;5929;51.906;7.674;2022-07-22T10:28:26;7.80;;;2.42;;
11743;SDS011;5929;51.906;7.674;2022-07-22T10:33:47;4.97;;;1.95;;
11743;SDS011;5929;51.906;7.674;2022-07-22T10:36:16;8.65;;;2.50;;
11743;SDS011;5929;51.906;7.674;2022-07-22T10:39:03;5.63;;;2.13;;
11743;SDS011;5929;51.906;7.674;2022-07-22T10:41:33;7.65;;;2.33;;
11743;SDS011;5929;51.906;7.674;2022-07-22T10:44:02;6.03;;;2.22;;
11743;SDS011;5929;51.906;7.674;2022-07-22T10:49:16;6.72;;;2.35;;
11743;SDS011;5929;51.906;7.674;2022-07-22T10:57:43;8.02;;;2.40;;
11743;SDS011;5929;51.906;7.674;2022-07-22T11:00:12;8.48;;;2.53;;
11743;SDS011;5929;51.906;7.674;2022-07-22T11:02:39;8.25;;;2.28;;
11743;SDS011;5929;51.906;7.674;2022-07-22T11:05:06;9.15;;;2.33;;
11743;SDS011;5929;51.906;7.674;2022-07-22T11:07:34;7.47;;;2.75;;
11743;SDS011;5929;51.906;7.674;2022-07-22T11:10:10;8.02;;;2.35;;
11743;SDS011;5929;51.906;7.674;2022-07-22T11:12:38;6.63;;;2.50;;
11743;SDS011;5929;51.906;7.674;2022-07-22T11:15:05;6.00;;;2.10;;
11743;SDS011;5929;51.906;7.674;2022-07-22T11:17:35;7.40;;;2.80;;
11743;SDS011;5929;51.906;7.674;2022-07-22T11:20:02;6.70;;;2.45;;
11743;SDS011;5929;51.906;7.674;2022-07-22T11:22:30;4.60;;;2.00;;
11743;SDS011;5929;51.906;7.674;2022-07-22T11:25:03;5.90;;;2.28;;
11743;SDS011;5929;51.906;7.674;2022-07-22T11:27:31;7.22;;;4.35;;
11743;SDS011;5929;51.906;7.674;2022-07-22T11:29:58;5.60;;;2.38;;
11743;SDS011;5929;51.906;7.674;2022-07-22T11:32:26;7.07;;;2.20;;
11743;SDS011;5929;51.906;7.674;2022-07-22T11:34:58;7.63;;;2.65;;
11743;SDS011;5929;51.906;7.674;2022-07-22T11:37:26;11.98;;;2.28;;
11743;SDS011;5929;51.906;7.674;2022-07-22T11:39:58;7.55;;;2.47;;
11743;SDS011;5929;51.906;7.674;2022-07-22T11:42:26;7.13;;;2.10;;
11743;SDS011;5929;51.906;7.674;2022-07-22T11:44:53;7.10;;;2.20;;
11743;SDS011;5929;51.906;7.674;2022-07-22T11:47:20;6.32;;;2.22;;
11743;SDS011;5929;51.906;7.674;2022-07-22T11:49:47;6.70;;;2.75;;
11743;SDS011;5929;51.906;7.674;2022-07-22T11:52:16;8.82;;;3.00;;
11743;SDS011;5929;51.906;7.674;2022-07-22T11:54:43;6.38;;;2.40;;
11743;SDS011;5929;51.906;7.674;2022-07-22T11:57:11;5.95;;;2.80;;
11743;SDS011;5929;51.906;7.674;2022-07-22T11:59:41;5.70;;;2.40;;
11743;SDS011;5929;51.906;7.674;2022-07-22T12:02:08;8.23;;;2.63;;
11743;SDS011;5929;51.906;7.674;2022-07-22T12:04:38;9.75;;;3.10;;
11743;SDS011;5929;51.906;7.674;2022-07-22T12:07:10;7.18;;;2.78;;
11743;SDS011;5929;51.906;7.674;2022-07-22T12:09:38;8.00;;;2.45;;
11743;SDS011;5929;51.906;7.674;2022-07-22T12:12:07;5.97;;;2.50;;
11743;SDS011;5929;51.906;7.674;2022-07-22T12:14:34;5.32;;;2.53;;
11743;SDS011;5929;51.906;7.674;2022-07-22T12:17:02;5.45;;;2.42;;
11743;SDS011;5929;51.906;7.674;2022-07-22T12:19:33;8.23;;;2.50;;
11743;SDS011;5929;51.906;7.674;2022-07-22T12:22:01;6.90;;;2.65;;
11743;SDS011;5929;51.906;7.674;2022-07-22T12:24:30;6.75;;;2.28;;
11743;SDS011;5929;51.906;7.674;2022-07-22T12:26:59;6.72;;;2.90;;
11743;SDS011;5929;51.906;7.674;2022-07-22T12:29:28;7.25;;;2.47;;
11743;SDS011;5929;51.906;7.674;2022-07-22T12:31:56;7.78;;;2.75;;
11743;SDS011;5929;51.906;7.674;2022-07-22T12:34:29;6.30;;;2.33;;
11743;SDS011;5929;51.906;7.674;2022-07-22T12:37:16;6.70;;;2.33;;
11743;SDS011;5929;51.906;7.674;2022-07-22T12:39:53;10.00;;;3.03;;
11743;SDS011;5929;51.906;7.674;2022-07-22T12:42:23;6.93;;;2.58;;
11743;SDS011;5929;51.906;7.674;2022-07-22T12:44:51;10.02;;;2.95;;
11743;SDS011;5929;51.906;7.674;2022-07-22T12:47:39;6.95;;;2.63;;
11743;SDS011;5929;51.906;7.674;2022-07-22T12:50:21;8.40;;;3.05;;
11743;SDS011;5929;51.906;7.674;2022-07-22T12:52:50;7.72;;;2.97;;
11743;SDS011;5929;51.906;7.674;2022-07-22T12:55:17;5.43;;;2.53;;
11743;SDS011;5929;51.906;7.674;2022-07-22T12:57:46;7.90;;;2.40;;
11743;SDS011;5929;51.906;7.674;2022-07-22T13:00:15;7.28;;;2.85;;
11743;SDS011;5929;51.906;7.674;2022-07-22T13:02:43;8.00;;;2.85;;
11743;SDS011;5929;51.906;7.674;2022-07-22T13:05:10;5.82;;;2.60;;
11743;SDS011;5929;51.906;7.674;2022-07-22T13:07:38;12.73;;;3.50;;
11743;SDS011;5929;51.906;7.674;2022-07-22T13:10:05;7.10;;;3.00;;
11743;SDS011;5929;51.906;7.674;2022-07-22T13:12:33;11.60;;;2.92;;
11743;SDS011;5929;51.906;7.674;2022-07-22T13:15:01;7.70;;;3.17;;
11743;SDS011;5929;51.906;7.674;2022-07-22T13:17:29;6.90;;;3.35;;
11743;SDS011;5929;51.906;7.674;2022-07-22T13:19:58;7.00;;;3.30;;
11743;SDS011;5929;51.906;7.674;2022-07-22T13:22:25;7.85;;;3.20;;
11743;SDS011;5929;51.906;7.674;2022-07-22T13:24:52;5.88;;;3.33;;
11743;SDS011;5929;51.906;7.674;2022-07-22T13:27:19;7.97;;;3.25;;
11743;SDS011;5929;51.906;7.674;2022-07-22T13:29:46;9.15;;;3.70;;
11743;SDS011;5929;51.906;7.674;2022-07-22T13:32:14;7.68;;;3.72;;
11743;SDS011;5929;51.906;7.674;2022-07-22T13:34:41;8.38;;;3.45;;
11743;SDS011;5929;51.906;7.674;2022-07-22T13:37:08;7.82;;;3.95;;
11743;SDS011;5929;51.906;7.674;2022-07-22T13:39:35;5.90;;;3.70;;
11743;SDS011;5929;51.906;7.674;2022-07-22T13:42:02;8.18;;;3.65;;
11743;SDS011;5929;51.906;7.674;2022-07-22T13:44:29;6.07;;;2.65;;
11743;SDS011;5929;51.906;7.674;2022-07-22T13:46:56;6.38;;;2.72;;
11743;SDS011;5929;51.906;7.674;2022-07-22T13:49:25;5.60;;;2.42;;
11743;SDS011;5929;51.906;7.674;2022-07-22T13:51:52;5.22;;;2.45;;
11743;SDS011;5929;51.906;7.674;2022-07-22T13:54:19;6.68;;;2.40;;
11743;SDS011;5929;51.906;7.674;2022-07-22T13:56:46;7.28;;;2.50;;
11743;SDS011;5929;51.906;7.674;2022-07-22T13:59:14;10.50;;;2.80;;
11743;SDS011;5929;51.906;7.674;2022-07-22T14:01:41;7.40;;;2.72;;
11743;SDS011;5929;51.906;7.674;2022-07-22T14:04:08;6.90;;;2.67;;
11743;SDS011;5929;51.906;7.674;2022-07-22T14:06:37;6.75;;;2.58;;
11743;SDS011;5929;51.906;7.674;2022-07-22T14:09:04;9.13;;;2.63;;
11743;SDS011;5929;51.906;7.674;2022-07-22T14:11:31;9.48;;;3.30;;
11743;SDS011;5929;51.906;7.674;2022-07-22T14:13:58;7.82;;;3.03;;
11743;SDS011;5929;51.906;7.674;2022-07-22T14:16:25;6.95;;;2.83;;
11743;SDS011;5929;51.906;7.674;2022-07-22T14:19:02;8.20;;;3.00;;
11743;SDS011;5929;51.906;7.674;2022-07-22T14:21:30;6.47;;;3.35;;
11743;SDS011;5929;51.906;7.674;2022-07-22T14:23:59;9.45;;;3.10;;
11743;SDS011;5929;51.906;7.674;2022-07-22T14:26:26;7.28;;;2.63;;
11743;SDS011;5929;51.906;7.674;2022-07-22T14:28:53;8.70;;;3.03;;
11743;SDS011;5929;51.906;7.674;2022-07-22T14:31:20;7.75;;;2.63;;
11743;SDS011;5929;51.906;7.674;2022-07-22T14:33:47;7.50;;;2.67;;
11743;SDS011;5929;51.906;7.674;2022-07-22T14:36:14;7.22;;;3.08;;
11743;SDS011;5929;51.906;7.674;2022-07-22T14:38:42;6.03;;;2.63;;
11743;SDS011;5929;51.906;7.674;2022-07-22T14:41:10;6.55;;;2.60;;
11743;SDS011;5929;51.906;7.674;2022-07-22T14:43:37;9.13;;;3.05;;
11743;SDS011;5929;51.906;7.674;2022-07-22T14:46:04;5.43;;;2.67;;
11743;SDS011;5929;51.906;7.674;2022-07-22T14:48:34;7.45;;;2.75;;
11743;SDS011;5929;51.906;7.674;2022-07-22T14:51:02;7.38;;;2.78;;
11743;SDS011;5929;51.906;7.674;2022-07-22T14:53:29;9.10;;;2.88;;
11743;SDS011;5929;51.906;7.674;2022-07-22T14:55:56;6.60;;;2.85;;
11743;SDS011;5929;51.906;7.674;2022-07-22T14:58:25;8.70;;;3.05;;
11743;SDS011;5929;51.906;7.674;2022-07-22T15:00:52;6.50;;;2.60;;
11743;SDS011;5929;51.906;7.674;2022-07-22T15:03:19;9.27;;;3.10;;
11743;SDS011;5929;51.906;7.674;2022-07-22T15:05:46;9.23;;;2.72;;
11743;SDS011;5929;51.906;7.674;2022-07-22T15:08:13;9.15;;;3.03;;